KFOK/FOK METAR and TAF weather

Enter ICAO airport designator
Station Type Date Time Source
KFOK METAR 2021/01/27 12:53 UTC NOAA

KFOK 271253Z 33004KT 8SM OVC005 01/00 A2995 RMK AO2 SLP143 T00060000


Station Type Date Time Source
KFOK Decoded METAR 2021/01/27 12:53 UTC NOAA

THE GABRESKI AIRPORT, NY, United States (KFOK) 40-51N 072-37W 33M
Jan 27, 2021 - 07:53 AM EST / 2021.01.27 1253 UTC
Wind: from the NNW (330 degrees) at 5 MPH (4 KT):0
Visibility: 8 mile(s):0
Sky conditions: overcast
Temperature: 33.1 F (0.6 C)
Windchill: 28 F (-2 C):1
Dew Point: 32.0 F (0.0 C)
Relative Humidity: 95%
Pressure (altimeter): 29.95 in. Hg (1014 hPa)
ob: KFOK 271253Z 33004KT 8SM OVC005 01/00 A2995 RMK AO2 SLP143 T00060000
cycle: 13

Station Type Date Time Source
KFOK TAF UTC NOAA

Error!

Example: see airport list